M I D A S
Marine Information and Data Acquisition System
Tripno 1556 of the Zeeleeuw from 2008-09-01 06:18:01 to 2008-09-01 11:25:58
Back to CruiseResearch ActivitiesStationsMapUnderway DataData graphs

EquipmentUnitsComment
TimeDGPSUTC
LatitudeDGPSDM.mWGS84
LongitudeDGPSDM.mWGS84
HeadingGyrodeg 
SOGDGPSknotsSpeed over ground
COGDGPSdegCourse over ground
DepthEcho soundermeters200 kHz
Missing or incorrect values are displayed as -999
Navigation data collected by the RV Zeeleeuw from 2008-09-01 06:21:17 to 2008-09-01 11:32:14
Time Latitude Longitude Heading SOG COG Depth
2008-09-01 06:22:21 51°13.644 2°55.982 113.1 4 295 -999
2008-09-01 06:23:22 51°13.677 2°55.872 117.1 4.3 298 -999
2008-09-01 06:24:21 51°13.703 2°55.783 103.3 3.1 290 9.7
2008-09-01 06:25:21 51°13.712 2°55.724 85.2 1.1 288 10.7
2008-09-01 06:26:21 51°13.715 2°55.72 43.7 1.6 231 10.6
2008-09-01 06:27:21 51°13.727 2°55.704 354.8 3.6 345 4.8
2008-09-01 06:28:21 51°13.826 2°55.636 337.8 8.2 337 10
2008-09-01 06:29:21 51°13.961 2°55.543 337.8 9 335 10.2
2008-09-01 06:30:20 51°14.094 2°55.445 333.8 8.9 333 10.3
2008-09-01 06:31:20 51°14.22 2°55.319 323.9 9 323 10.4
2008-09-01 06:32:19 51°14.332 2°55.139 311.7 10.3 310 10
2008-09-01 06:33:18 51°14.422 2°54.915 290.9 10 288 9.6
2008-09-01 06:34:18 51°14.414 2°54.642 258 10.7 253 10
2008-09-01 06:35:18 51°14.34 2°54.381 242.5 10.9 241 8.1
2008-09-01 06:36:18 51°14.251 2°54.121 241.7 11.4 241 7.3
2008-09-01 06:37:18 51°14.156 2°53.85 240.3 11.8 239 7.9
2008-09-01 06:38:18 51°14.055 2°53.586 241.1 11.5 240 8.1
2008-09-01 06:39:18 51°13.958 2°53.319 241.6 11.5 240 7.9
2008-09-01 06:40:17 51°13.86 2°53.061 241.6 11.6 239 8.4
2008-09-01 06:41:17 51°13.763 2°52.796 241.4 11.6 240 8.6
2008-09-01 06:42:17 51°13.666 2°52.529 241.2 11.6 239 8.6
2008-09-01 06:43:17 51°13.566 2°52.265 241.6 11.7 239 8.8
2008-09-01 06:44:17 51°13.465 2°51.99 240.4 12.3 239 8.7
2008-09-01 06:45:17 51°13.359 2°51.712 241.3 12.4 239 9
2008-09-01 06:46:17 51°13.255 2°51.431 242.2 12.5 241 9
2008-09-01 06:47:17 51°13.152 2°51.146 242.4 12.5 240 9.1
2008-09-01 06:48:17 51°13.049 2°50.862 242.1 12.3 240 9
2008-09-01 06:49:17 51°12.945 2°50.579 240.6 12.5 240 9.2
2008-09-01 06:50:17 51°12.84 2°50.296 241 12.3 239 9.1
2008-09-01 06:51:17 51°12.741 2°50.01 244.5 12.2 242 9
2008-09-01 06:52:17 51°12.657 2°49.71 249.2 12.5 248 9.2
2008-09-01 06:53:17 51°12.577 2°49.404 247.8 12.5 247 9.4
2008-09-01 06:54:17 51°12.494 2°49.1 247.7 12.5 246 9.6
2008-09-01 06:55:17 51°12.411 2°48.794 248.1 12.5 246 9.8
2008-09-01 06:56:17 51°12.327 2°48.491 248.1 12.5 246 10.3
2008-09-01 06:57:17 51°12.241 2°48.187 247.8 12.7 247 10.5
2008-09-01 06:58:17 51°12.158 2°47.882 248.9 12.6 246 10.4
2008-09-01 06:59:17 51°12.073 2°47.577 248.1 12.6 247 10.7
2008-09-01 07:00:17 51°11.989 2°47.27 248.3 12.6 246 10.6
2008-09-01 07:01:17 51°11.909 2°46.96 250.1 12.7 248 10.9
2008-09-01 07:02:17 51°11.827 2°46.65 248.2 12.7 247 11.1
2008-09-01 07:03:17 51°11.748 2°46.336 249.6 12.8 248 11
2008-09-01 07:04:17 51°11.663 2°46.027 247.1 12.7 246 10.9
2008-09-01 07:05:17 51°11.584 2°45.713 249.7 12.8 248 11
2008-09-01 07:06:17 51°11.502 2°45.403 249.1 12.7 247 10.9
2008-09-01 07:07:17 51°11.421 2°45.092 248.5 12.7 247 10.9
2008-09-01 07:08:17 51°11.347 2°44.775 252.2 12.8 253 10.8
2008-09-01 07:09:17 51°11.279 2°44.454 251 12.7 251 10.6
2008-09-01 07:10:17 51°11.209 2°44.138 251 12.6 250 10.7
2008-09-01 07:11:17 51°11.147 2°43.816 253.9 12.7 254 10.7
2008-09-01 07:12:17 51°11.088 2°43.492 254.2 12.6 254 10.6
2008-09-01 07:13:17 51°11.037 2°43.166 259 12.7 258 10.9
2008-09-01 07:14:17 51°10.995 2°42.836 260 12.7 259 10.9
2008-09-01 07:15:17 51°10.949 2°42.507 256.1 12.7 256 11
2008-09-01 07:16:17 51°10.9 2°42.18 257.5 12.6 258 10.8
2008-09-01 07:17:17 51°10.855 2°41.853 259.6 12.7 259 10.9
2008-09-01 07:18:17 51°10.812 2°41.524 258 12.7 257 10.9
2008-09-01 07:19:17 51°10.767 2°41.194 259.5 12.7 260 10.8
2008-09-01 07:20:17 51°10.731 2°40.883 259.7 10.1 258 11.2
2008-09-01 07:21:17 51°10.696 2°40.671 256.2 6.2 259 11.4
2008-09-01 07:22:17 51°10.708 2°40.574 315.3 1.8 304 11.5
2008-09-01 07:23:17 51°10.711 2°40.562 348.3 0.1 221 11.5
2008-09-01 07:24:17 51°10.709 2°40.562 7.2 0.1 161 11.7
2008-09-01 07:25:17 51°10.707 2°40.562 6.4 0.2 234 11.6
2008-09-01 07:26:17 51°10.705 2°40.56 358 0.1 320 11.7
2008-09-01 07:27:17 51°10.703 2°40.558 355.1 0.3 210 11.3
2008-09-01 07:28:17 51°10.7 2°40.556 354.5 0.2 182 11.3
2008-09-01 07:29:17 51°10.696 2°40.554 359.6 0.4 200 11.6
2008-09-01 07:30:17 51°10.692 2°40.554 2.1 0.2 192 11.9
2008-09-01 07:31:17 51°10.687 2°40.553 5.8 0.5 160 11.3
2008-09-01 07:32:17 51°10.713 2°40.566 28.9 4.9 32 11.8
2008-09-01 07:33:17 51°10.821 2°40.711 40.7 10.5 39 11.4
2008-09-01 07:34:18 51°10.954 2°40.911 48.1 10.9 47 11.2
2008-09-01 07:35:18 51°11.069 2°41.133 52.2 11.1 53 11
2008-09-01 07:36:18 51°11.182 2°41.359 49.3 10.7 48 10.7
2008-09-01 07:37:18 51°11.294 2°41.585 51.9 10.7 50 10.3
2008-09-01 07:38:19 51°11.408 2°41.821 51.1 11.2 51 9.9
2008-09-01 07:39:18 51°11.518 2°42.052 52.3 11.1 52 9
2008-09-01 07:40:19 51°11.634 2°42.29 50.2 11.1 55 8.6
2008-09-01 07:41:19 51°11.746 2°42.52 52.8 11.1 48 8.3
2008-09-01 07:42:19 51°11.863 2°42.744 50.4 11 51 8.4
2008-09-01 07:43:19 51°11.982 2°42.962 47 11.1 53 8.4
2008-09-01 07:44:19 51°12.101 2°43.181 48.6 10.9 46 8.9
2008-09-01 07:45:19 51°12.214 2°43.401 48.1 10.7 51 10.2
2008-09-01 07:46:19 51°12.331 2°43.621 48.3 10.9 48 10.1
2008-09-01 07:47:19 51°12.447 2°43.842 48 10.7 49 10.5
2008-09-01 07:48:19 51°12.562 2°44.062 48.5 10.7 56 10.2
2008-09-01 07:49:19 51°12.679 2°44.279 47.6 10.9 50 10.8
2008-09-01 07:50:19 51°12.794 2°44.497 49.9 10.7 52 10.7
2008-09-01 07:51:19 51°12.91 2°44.718 48.2 11.2 54 10.7
2008-09-01 07:52:19 51°13.031 2°44.933 47.9 10.9 47 10.3
2008-09-01 07:53:19 51°13.156 2°45.139 46.2 11 48 10.6
2008-09-01 07:54:19 51°13.29 2°45.326 39.6 10.7 45 10.3
2008-09-01 07:55:19 51°13.442 2°45.466 17.6 10.6 17 10.1
2008-09-01 07:56:20 51°13.618 2°45.532 12.6 10.5 10 7.6
2008-09-01 07:57:20 51°13.793 2°45.572 9.5 10.8 8 7.8
2008-09-01 07:58:20 51°13.975 2°45.609 11.4 11.1 4 9.6
2008-09-01 07:59:20 51°14.155 2°45.648 12.7 10.9 4 11.1
2008-09-01 08:00:20 51°14.333 2°45.687 9.9 11 6 10.8
2008-09-01 08:01:20 51°14.512 2°45.698 2 10.9 357 7.8
2008-09-01 08:02:20 51°14.691 2°45.685 1.2 11 354 8.3
2008-09-01 08:03:20 51°14.876 2°45.677 2.1 11 359 11
2008-09-01 08:04:20 51°15.057 2°45.67 2.7 10.9 357 12.8
2008-09-01 08:05:20 51°15.237 2°45.66 2.7 10.8 359 14.1
2008-09-01 08:06:20 51°15.419 2°45.647 3.5 10.9 359 16
2008-09-01 08:07:20 51°15.6 2°45.637 2.4 10.9 -999 15.9
2008-09-01 08:08:20 51°15.783 2°45.634 3.9 10.9 1 13.3
2008-09-01 08:09:21 51°15.966 2°45.637 3.3 10.8 358 11
2008-09-01 08:10:20 51°16.141 2°45.642 2.3 10.6 -999 10.1
2008-09-01 08:11:21 51°16.318 2°45.648 3.5 10.5 3 9.5
2008-09-01 08:12:21 51°16.491 2°45.65 2.4 10.4 -999 9.7
2008-09-01 08:13:21 51°16.663 2°45.652 4.4 10.3 359 10.2
2008-09-01 08:14:21 51°16.836 2°45.639 1.9 10.4 352 11.2
2008-09-01 08:15:21 51°17.007 2°45.628 1.3 10.2 358 11.8
2008-09-01 08:16:21 51°17.179 2°45.608 358.9 10.3 355 12.5
2008-09-01 08:17:21 51°17.354 2°45.578 0.4 10.5 351 13.5
2008-09-01 08:18:21 51°17.528 2°45.546 359.2 10.5 351 13.6
2008-09-01 08:19:21 51°17.703 2°45.509 358.8 10.6 354 14.6
2008-09-01 08:20:21 51°17.874 2°45.474 359.4 10.2 353 16.1
2008-09-01 08:21:22 51°18.05 2°45.436 357.7 10.6 353 17.6
2008-09-01 08:22:21 51°18.22 2°45.398 359.9 10.6 349 18.8
2008-09-01 08:23:22 51°18.396 2°45.356 0.1 10.6 351 19.2
2008-09-01 08:24:22 51°18.569 2°45.328 3.4 10.4 355 18.1
2008-09-01 08:25:22 51°18.744 2°45.304 3.7 10.6 356 17.1
2008-09-01 08:26:22 51°18.917 2°45.287 6.6 10.3 359 15
2008-09-01 08:27:22 51°19.093 2°45.283 6.6 10.7 358 13.8
2008-09-01 08:28:22 51°19.233 2°45.293 19.5 5.4 11 12.1
2008-09-01 08:29:22 51°19.295 2°45.318 18.9 3.5 5 11.5
2008-09-01 08:30:22 51°19.347 2°45.336 30.7 2.8 14 10.7
2008-09-01 08:31:22 51°19.362 2°45.337 11.9 0.4 310 10
2008-09-01 08:32:22 51°19.363 2°45.322 348.6 0.5 278 11
2008-09-01 08:33:22 51°19.36 2°45.306 341 0.6 242 12.3
2008-09-01 08:34:22 51°19.356 2°45.296 348.4 0.4 226 11.2
2008-09-01 08:35:22 51°19.35 2°45.282 353.8 1.3 328 10.5
2008-09-01 08:36:22 51°19.438 2°45.284 19 8.2 21 10.4
2008-09-01 08:37:22 51°19.589 2°45.369 22.5 10.2 21 10.5
2008-09-01 08:38:22 51°19.757 2°45.441 20.2 10.5 10 13.5
2008-09-01 08:39:22 51°19.929 2°45.491 14.6 10.5 19 16.6
2008-09-01 08:40:22 51°20.093 2°45.569 28.5 10.5 17 18.5
2008-09-01 08:41:22 51°20.231 2°45.653 25.4 6 14 17.9
2008-09-01 08:42:22 51°20.284 2°45.659 2.2 1.1 311 18.6
2008-09-01 08:43:22 51°20.282 2°45.638 343.8 0.6 254 19.7
2008-09-01 08:44:22 51°20.274 2°45.622 343.1 1 227 20
2008-09-01 08:45:22 51°20.263 2°45.608 347.6 1.1 222 19.9
2008-09-01 08:46:22 51°20.251 2°45.594 350.1 0.8 211 19.5
2008-09-01 08:47:22 51°20.239 2°45.581 354.2 1 212 20.2
2008-09-01 08:48:22 51°20.226 2°45.57 356.3 0.7 205 20.4
2008-09-01 08:49:22 51°20.213 2°45.558 353.1 0.8 197 20.7
2008-09-01 08:50:22 51°20.205 2°45.544 348.5 1.5 308 20.5
2008-09-01 08:51:22 51°20.255 2°45.488 348.2 4.9 342 20.8
2008-09-01 08:52:22 51°20.371 2°45.499 11.3 9.5 8 23.2
2008-09-01 08:53:22 51°20.541 2°45.518 12.2 10.3 5 23.9
2008-09-01 08:54:22 51°20.713 2°45.543 12 10.7 7 24.1
2008-09-01 08:55:22 51°20.889 2°45.57 11 10.6 8 24.9
2008-09-01 08:56:22 51°21.065 2°45.601 10.2 10.8 12 25.6
2008-09-01 08:57:22 51°21.243 2°45.632 12 10.5 8 25.2
2008-09-01 08:58:22 51°21.422 2°45.667 10.9 10.8 7 24.9
2008-09-01 08:59:22 51°21.6 2°45.703 11.6 10.7 9 23.8
2008-09-01 09:00:22 51°21.777 2°45.744 12.3 10.9 14 22.4
2008-09-01 09:01:21 51°21.948 2°45.78 12.7 10.6 6 21.3
2008-09-01 09:02:21 51°22.123 2°45.828 17.3 10.6 14 20.3
2008-09-01 09:03:20 51°22.285 2°45.914 25.3 10.7 11 20.2
2008-09-01 09:04:19 51°22.444 2°46.013 21.6 10.2 22 21.3
2008-09-01 09:05:18 51°22.601 2°46.116 28.3 10.6 25 22
2008-09-01 09:06:18 51°22.758 2°46.231 25.5 10.1 28 21
2008-09-01 09:07:18 51°22.916 2°46.345 27.5 10.6 21 24
2008-09-01 09:08:18 51°23.075 2°46.451 22.8 10.3 14 17.1
2008-09-01 09:09:18 51°23.231 2°46.565 27.5 10.3 29 24.1
2008-09-01 09:10:18 51°23.387 2°46.68 26.9 10.2 27 21.5
2008-09-01 09:11:18 51°23.546 2°46.789 26.3 10.2 24 24.5
2008-09-01 09:12:18 51°23.706 2°46.896 28 10.7 24 24.7
2008-09-01 09:13:18 51°23.866 2°46.998 24.2 10.9 9 25.1
2008-09-01 09:14:18 51°24.023 2°47.106 28.5 10.6 20 25.8
2008-09-01 09:15:18 51°24.179 2°47.219 28.3 10.3 19 26.2
2008-09-01 09:16:18 51°24.333 2°47.334 27.3 10.2 24 26.9
2008-09-01 09:17:18 51°24.489 2°47.453 30.2 10.7 29 28.2
2008-09-01 09:18:18 51°24.645 2°47.566 30 10.3 32 29.3
2008-09-01 09:19:18 51°24.798 2°47.686 29 10.3 23 29.5
2008-09-01 09:20:18 51°24.952 2°47.808 27.9 10.6 20 27.9
2008-09-01 09:21:18 51°25.106 2°47.931 28.8 10.1 31 28
2008-09-01 09:22:18 51°25.26 2°48.053 29.1 10.3 28 27.4
2008-09-01 09:23:18 51°25.418 2°48.179 30 11 18 26.6
2008-09-01 09:24:18 51°25.574 2°48.303 29.4 10.5 29 23.3
2008-09-01 09:25:18 51°25.727 2°48.432 30.2 10.4 32 23.1
2008-09-01 09:26:18 51°25.88 2°48.551 26.8 10.1 24 23.6
2008-09-01 09:27:18 51°26.029 2°48.691 34.9 10.5 37 23.3
2008-09-01 09:28:18 51°26.181 2°48.819 29.6 10.3 32 23
2008-09-01 09:29:18 51°26.332 2°48.949 30 10.1 36 21.8
2008-09-01 09:30:18 51°26.475 2°49.072 30.7 8.7 34 22
2008-09-01 09:31:18 51°26.574 2°49.153 28.2 4.8 33 20.7
2008-09-01 09:32:18 51°26.615 2°49.214 44.1 2.9 52 20.4
2008-09-01 09:33:18 51°26.677 2°49.297 37.9 6 39 20.2
2008-09-01 09:34:18 51°26.748 2°49.399 29.7 4.3 24 18.6
2008-09-01 09:35:18 51°26.787 2°49.403 5 1.2 306 20.3
2008-09-01 09:36:18 51°26.776 2°49.386 343.9 1.2 214 18.5
2008-09-01 09:37:18 51°26.754 2°49.376 347.7 1.5 196 19.8
2008-09-01 09:38:18 51°26.733 2°49.364 356.4 1.3 209 19.5
2008-09-01 09:39:18 51°26.715 2°49.352 353.7 1 206 20.1
2008-09-01 09:40:18 51°26.7 2°49.34 354.4 0.8 198 20.4
2008-09-01 09:41:18 51°26.7 2°49.322 356.9 1.9 333 21
2008-09-01 09:42:18 51°26.743 2°49.375 69 5.2 91 18.5
2008-09-01 09:43:18 51°26.671 2°49.496 143.6 7.8 154 20.6
2008-09-01 09:44:18 51°26.542 2°49.619 138.5 10 144 23.6
2008-09-01 09:45:18 51°26.396 2°49.767 140.2 10.7 144 22
2008-09-01 09:46:18 51°26.242 2°49.921 142.3 10.9 147 23
2008-09-01 09:47:18 51°26.089 2°50.076 140 10.8 151 23
2008-09-01 09:48:18 51°25.929 2°50.226 148.5 11.9 153 22.3
2008-09-01 09:49:18 51°25.737 2°50.329 158.1 12.5 159 23.2
2008-09-01 09:50:18 51°25.536 2°50.413 158 12.5 164 22.9
2008-09-01 09:51:18 51°25.339 2°50.511 156.7 12.6 158 23
2008-09-01 09:52:18 51°25.141 2°50.609 153.8 12.6 167 22.6
2008-09-01 09:53:18 51°24.948 2°50.722 156.4 12.2 159 22.7
2008-09-01 09:54:18 51°24.756 2°50.836 150.5 12.4 163 22.9
2008-09-01 09:55:18 51°24.564 2°50.952 151.6 12.5 167 22.9
2008-09-01 09:56:18 51°24.37 2°51.064 154.2 12.6 165 39.6
2008-09-01 09:57:18 51°24.171 2°51.163 158.1 12.5 165 20.8
2008-09-01 09:58:18 51°23.973 2°51.262 154.5 12.4 157 19.6
2008-09-01 09:59:18 51°23.798 2°51.365 156.4 8.3 161 16.3
2008-09-01 10:00:18 51°23.695 2°51.415 156.3 5.6 162 16.5
2008-09-01 10:01:18 51°23.608 2°51.447 168.7 5.2 178 16.4
2008-09-01 10:02:18 51°23.53 2°51.456 153.8 4.2 162 15.6
2008-09-01 10:03:18 51°23.488 2°51.485 149.1 0.7 210 15.6
2008-09-01 10:04:18 51°23.48 2°51.478 139.6 0.4 186 15.7
2008-09-01 10:05:18 51°23.468 2°51.474 132.6 0.6 191 15.1
2008-09-01 10:06:18 51°23.454 2°51.473 140.1 0.9 178 13.5
2008-09-01 10:07:18 51°23.438 2°51.472 151.6 1 177 15.1
2008-09-01 10:08:18 51°23.37 2°51.488 172.4 6.9 178 15
2008-09-01 10:09:18 51°23.226 2°51.497 172.9 9.6 178 14.1
2008-09-01 10:10:18 51°23.105 2°51.528 156.5 6.2 158 18.5
2008-09-01 10:11:18 51°23.042 2°51.631 121.8 5.7 132 21.5
2008-09-01 10:12:18 51°22.967 2°51.733 131.3 6.1 144 22.5
2008-09-01 10:13:18 51°22.862 2°51.831 143.7 8.8 153 22.7
2008-09-01 10:14:18 51°22.706 2°51.965 150.7 12 158 22.7
2008-09-01 10:15:18 51°22.506 2°52.009 182.1 12.5 187 22.7
2008-09-01 10:16:18 51°22.302 2°51.935 189.5 12.6 194 23.4
2008-09-01 10:17:18 51°22.096 2°51.855 189 12.7 195 23.4
2008-09-01 10:18:18 51°21.89 2°51.798 182.9 12.6 187 24.1
2008-09-01 10:19:18 51°21.681 2°51.748 184.3 12.7 190 23.6
2008-09-01 10:20:18 51°21.472 2°51.704 182.2 12.7 185 22.3
2008-09-01 10:21:18 51°21.262 2°51.657 182.7 12.6 189 20.3
2008-09-01 10:22:18 51°21.054 2°51.613 182 12.7 187 18.5
2008-09-01 10:23:18 51°20.847 2°51.57 181 12.5 189 16.6
2008-09-01 10:24:18 51°20.641 2°51.531 182 12.4 186 15.5
2008-09-01 10:25:18 51°20.435 2°51.491 182.6 12.4 187 14.1
2008-09-01 10:26:18 51°20.229 2°51.459 179.3 12.5 185 13.6
2008-09-01 10:27:18 51°20.022 2°51.431 179.6 12.7 188 13.9
2008-09-01 10:28:18 51°19.812 2°51.405 179.4 12.6 184 14.6
2008-09-01 10:29:18 51°19.603 2°51.374 179.3 12.6 185 15.4
2008-09-01 10:30:18 51°19.392 2°51.35 177.2 12.7 184 15.1
2008-09-01 10:31:18 51°19.179 2°51.336 175.5 12.8 184 15.2
2008-09-01 10:32:18 51°18.967 2°51.324 174.1 12.8 183 15
2008-09-01 10:33:18 51°18.753 2°51.323 173.2 12.8 176 14.4
2008-09-01 10:34:18 51°18.54 2°51.324 174.9 12.7 179 14.1
2008-09-01 10:35:18 51°18.33 2°51.324 175.6 12.6 181 13
2008-09-01 10:36:18 51°18.119 2°51.328 174.1 12.6 182 11.8
2008-09-01 10:37:18 51°17.91 2°51.333 173.8 12.7 178 11.4
2008-09-01 10:38:18 51°17.7 2°51.346 173.6 12.7 178 10.2
2008-09-01 10:39:18 51°17.495 2°51.362 174.2 12.4 176 10.3
2008-09-01 10:40:18 51°17.289 2°51.38 174.4 12.3 178 11.7
2008-09-01 10:41:18 51°17.084 2°51.383 184.3 12.4 190 11.4
2008-09-01 10:42:18 51°16.884 2°51.301 194.9 12.6 195 11.1
2008-09-01 10:43:18 51°16.686 2°51.206 196 12.6 196 12
2008-09-01 10:44:18 51°16.487 2°51.116 195.1 12.5 196 12.3
2008-09-01 10:45:18 51°16.287 2°51.036 192.4 12.6 196 11.6
2008-09-01 10:46:18 51°16.085 2°50.967 189.4 12.4 190 12.5
2008-09-01 10:47:18 51°15.884 2°50.898 190.8 12.4 196 13.1
2008-09-01 10:48:18 51°15.683 2°50.833 190.7 12.3 193 13.3
2008-09-01 10:49:18 51°15.483 2°50.765 190.2 12.2 191 13.5
2008-09-01 10:50:18 51°15.283 2°50.696 191.5 12.4 195 13.4
2008-09-01 10:51:18 51°15.083 2°50.63 189.5 12.3 193 13.1
2008-09-01 10:52:18 51°14.883 2°50.562 190 12.3 190 12.8
2008-09-01 10:53:18 51°14.683 2°50.494 189.1 12.4 189 12.4
2008-09-01 10:54:18 51°14.509 2°50.43 191.6 8.5 193 11.7
2008-09-01 10:55:18 51°14.389 2°50.392 190.7 6.8 190 11
2008-09-01 10:56:18 51°14.283 2°50.366 189.6 6.2 188 10.8
2008-09-01 10:57:18 51°14.182 2°50.339 190.1 5.7 188 10.2
2008-09-01 10:58:18 51°14.133 2°50.328 194.1 0.7 159 10.1
2008-09-01 10:59:20 51°14.128 2°50.34 177 0.6 111 -999
2008-09-01 11:00:22 51°14.123 2°50.352 156.3 0.7 129 9.8
2008-09-01 11:01:21 51°14.116 2°50.368 147.7 0.7 133 10
2008-09-01 11:02:20 51°14.107 2°50.386 150.3 1.7 138 9.8
2008-09-01 11:03:19 51°14.099 2°50.484 66.8 5.7 70 9.9
2008-09-01 11:04:19 51°14.158 2°50.723 67.5 11.6 66 9.6
2008-09-01 11:05:18 51°14.218 2°51.016 70.8 11.9 69 9.6
2008-09-01 11:06:18 51°14.272 2°51.321 72.9 12 81 9.6
2008-09-01 11:07:18 51°14.327 2°51.628 73.5 12.1 72 9.7
2008-09-01 11:08:18 51°14.382 2°51.936 72.6 12 73 9.6
2008-09-01 11:09:18 51°14.436 2°52.248 74.8 12.1 76 9.8
2008-09-01 11:10:18 51°14.472 2°52.569 79.7 12.1 74 9.8
2008-09-01 11:11:18 51°14.507 2°52.879 80.3 11.4 79 9.8
2008-09-01 11:12:18 51°14.512 2°53.09 89.2 6.4 88 9.7
2008-09-01 11:13:18 51°14.517 2°53.238 81.4 5.2 83 9.2
2008-09-01 11:14:18 51°14.526 2°53.37 84 5 87 9.9
2008-09-01 11:15:18 51°14.53 2°53.502 87.7 4.9 87 10.6
2008-09-01 11:16:18 51°14.534 2°53.632 88.7 4.9 88 11.3
2008-09-01 11:17:18 51°14.534 2°53.764 93.8 5 90 11.4
2008-09-01 11:18:18 51°14.53 2°53.873 104.1 3.5 97 11.4
2008-09-01 11:19:18 51°14.521 2°53.949 117.5 2.6 102 11.5
2008-09-01 11:20:18 51°14.512 2°54.008 127.6 2.2 105 11.5
2008-09-01 11:21:18 51°14.498 2°54.098 102.9 4.7 97 11.4
2008-09-01 11:22:18 51°14.496 2°54.251 94.1 6.8 92 12.6
2008-09-01 11:23:18 51°14.481 2°54.441 107.2 6.5 103 12.3
2008-09-01 11:24:18 51°14.457 2°54.607 108 7.7 104 12.7
2008-09-01 11:25:18 51°14.413 2°54.854 113.9 10.8 110 12.2
2008-09-01 11:26:18 51°14.32 2°55.134 128.9 12.1 129 12.2
2008-09-01 11:27:18 51°14.186 2°55.355 142.1 10.5 143 12.3
2008-09-01 11:28:18 51°14.072 2°55.458 154.5 6.2 155 13
2008-09-01 11:29:18 51°13.98 2°55.529 153.7 6.7 153 12.9
2008-09-01 11:30:22 51°13.86 2°55.619 154.8 7.7 155 -999
2008-09-01 11:31:22 51°13.762 2°55.706 139.3 5.6 142 -999